Time;durP1;ratioP1;P1;durP2;ratioP2;P2;SDS_P1;SDS_P2;PMS_P1;PMS_P2;Temp;Humidity;BMP_temperature;BMP_pressure;BME280_temperature;BME280_humidity;BME280_pressure;Samples;Min_cycle;Max_cycle;Signal;HPM_P1;HPM_P2
2022/10/27 00:01:35;;;;;;;15.10;7.28;;;12.60;99.90;;;11.61;100.00;98136.66;5031356;28;20468;-74
2022/10/27 00:04:01;;;;;;;20.15;7.22;;;12.60;99.90;;;11.61;100.00;98139.31;5031233;28;20453;-75
2022/10/27 00:06:27;;;;;;;25.37;8.23;;;12.50;99.90;;;11.62;100.00;98145.44;5031037;28;20414;-75
2022/10/27 00:08:53;;;;;;;20.98;7.95;;;12.50;99.90;;;11.57;100.00;98143.50;5031462;28;20414;-74
2022/10/27 00:11:18;;;;;;;18.17;8.07;;;12.50;99.90;;;11.52;100.00;98143.41;5031298;28;20427;-75
2022/10/27 00:13:45;;;;;;;20.42;7.90;;;12.40;99.90;;;11.51;100.00;98148.94;5031096;28;21043;-75
2022/10/27 00:16:17;;;;;;;18.77;7.93;;;12.40;99.90;;;11.49;100.00;98148.38;5031258;28;20497;-75
2022/10/27 00:18:44;;;;;;;18.45;7.78;;;12.40;99.90;;;11.49;100.00;98145.72;5031335;28;20976;-75
2022/10/27 00:21:12;;;;;;;18.55;8.25;;;12.40;99.90;;;11.48;100.00;98149.41;5030936;28;20785;-75
2022/10/27 00:23:38;;;;;;;15.00;7.30;;;12.40;99.90;;;11.48;100.00;98150.22;5030763;28;20442;-75
2022/10/27 00:26:06;;;;;;;23.70;8.70;;;12.40;99.90;;;11.50;100.00;98152.66;5030959;28;20401;-75
2022/10/27 00:28:33;;;;;;;21.23;8.45;;;12.40;99.90;;;11.46;100.00;98154.97;5031080;28;20407;-76
2022/10/27 00:31:01;;;;;;;15.90;7.80;;;12.40;99.90;;;11.39;100.00;98162.25;5031115;28;20406;-75
2022/10/27 00:33:29;;;;;;;16.73;7.75;;;12.40;99.90;;;11.37;100.00;98160.88;5030605;28;20780;-75
2022/10/27 00:35:55;;;;;;;15.25;7.90;;;12.30;99.90;;;11.38;100.00;98168.59;5030795;28;20407;-75
2022/10/27 00:38:22;;;;;;;23.50;7.63;;;12.30;99.90;;;11.37;100.00;98166.97;5030925;28;20461;-75
2022/10/27 00:40:48;;;;;;;24.02;8.85;;;12.30;99.90;;;11.34;100.00;98164.00;5030768;28;20421;-75
2022/10/27 00:43:29;;;;;;;25.50;8.52;;;12.30;99.90;;;11.31;100.00;98164.47;5030310;28;20419;-75
2022/10/27 00:46:00;;;;;;;18.95;8.65;;;12.20;99.90;;;11.31;100.00;98167.94;5030668;28;20410;-74
2022/10/27 00:48:29;;;;;;;17.17;8.00;;;12.30;99.90;;;11.31;100.00;98167.94;5030801;28;20419;-75
2022/10/27 00:50:56;;;;;;;17.13;7.78;;;12.30;99.90;;;11.32;100.00;98164.25;5049513;22;20490;-76
2022/10/27 00:53:22;;;;;;;18.02;8.55;;;12.30;99.90;;;11.32;100.00;98168.72;5049588;28;20397;-76
2022/10/27 00:55:48;;;;;;;14.18;7.85;;;12.30;99.90;;;11.29;100.00;98167.34;5065912;28;20516;-76
2022/10/27 00:58:18;;;;;;;23.40;8.77;;;12.30;99.90;;;11.30;100.00;98168.16;5050598;28;20398;-76
2022/10/27 01:00:45;;;;;;;23.60;8.00;;;12.20;99.90;;;11.27;100.00;98160.69;5045864;28;20522;-76
2022/10/27 01:03:14;;;;;;;21.02;8.15;;;12.20;99.90;;;11.26;100.00;98162.53;5028862;28;20415;-76
2022/10/27 01:05:43;;;;;;;18.95;7.68;;;12.20;99.90;;;11.23;100.00;98157.69;5030486;28;20399;-76
2022/10/27 01:08:09;;;;;;;22.65;9.00;;;12.20;99.90;;;11.23;100.00;98170.94;5030525;28;20411;-76
2022/10/27 01:10:35;;;;;;;21.57;7.83;;;12.20;99.90;;;11.21;100.00;98165.88;5030432;28;20403;-76
2022/10/27 01:13:01;;;;;;;21.52;8.00;;;12.20;99.90;;;11.18;100.00;98163.72;5030380;28;20411;-75
2022/10/27 01:15:36;;;;;;;19.50;8.02;;;12.10;99.90;;;11.15;100.00;98164.19;5030448;28;20449;-76
2022/10/27 01:18:17;;;;;;;19.77;7.95;;;12.10;99.90;;;11.12;100.00;98159.38;5030465;28;20825;-76
2022/10/27 01:21:44;;;;;;;21.00;8.70;;;12.10;99.90;;;11.09;100.00;98159.81;5030323;28;20414;-76
2022/10/27 01:24:41;;;;;;;23.13;7.90;;;12.10;99.90;;;11.08;100.00;98152.91;5030062;28;20410;-75
2022/10/27 01:27:21;;;;;;;24.97;8.50;;;12.00;99.90;;;11.10;100.00;98150.84;5030535;28;20425;-75
2022/10/27 01:30:06;;;;;;;15.82;8.32;;;12.10;99.90;;;11.07;100.00;98151.28;5030391;28;20395;-75
2022/10/27 01:32:54;;;;;;;21.02;8.65;;;12.00;99.90;;;11.06;100.00;98148.88;5030163;28;20508;-75
2022/10/27 01:35:31;;;;;;;24.58;9.30;;;12.00;99.90;;;11.06;100.00;98154.16;5030244;28;20438;-75
2022/10/27 01:38:07;;;;;;;14.38;8.10;;;12.00;99.90;;;11.04;100.00;98161.56;5030300;28;20899;-75
2022/10/27 01:40:38;;;;;;;19.70;8.00;;;12.00;99.90;;;11.04;100.00;98161.56;5030161;28;20409;-75
2022/10/27 01:43:09;;;;;;;18.95;8.57;;;12.00;99.90;;;11.02;100.00;98161.81;5029862;28;20506;-74
2022/10/27 01:45:37;;;;;;;21.98;8.98;;;12.00;99.90;;;10.99;100.00;98159.59;5030003;28;20400;-75
2022/10/27 01:48:07;;;;;;;13.60;8.18;;;11.90;99.90;;;10.97;100.00;98166.19;5029854;28;20407;-75
2022/10/27 01:50:36;;;;;;;18.17;8.32;;;11.90;99.90;;;10.94;100.00;98166.66;5029821;28;21068;-75
2022/10/27 01:53:02;;;;;;;18.52;8.07;;;11.90;99.90;;;10.92;100.00;98164.22;5029817;28;20816;-75
2022/10/27 01:55:39;;;;;;;19.05;8.05;;;11.90;99.90;;;10.94;100.00;98161.34;5030010;28;20494;-75
2022/10/27 01:58:41;;;;;;;21.43;8.50;;;11.90;99.90;;;10.94;100.00;98151.56;5030009;28;20490;-74
2022/10/27 02:01:31;;;;;;;22.38;9.02;;;11.90;99.90;;;10.92;100.00;98151.00;5029901;28;20395;-74
2022/10/27 02:04:05;;;;;;;15.98;7.95;;;11.90;99.90;;;10.90;100.00;98145.13;5029621;28;20540;-75
2022/10/27 02:06:40;;;;;;;18.45;8.60;;;11.80;99.90;;;10.86;100.00;98139.50;5029968;28;20403;-74
2022/10/27 02:09:13;;;;;;;14.63;7.85;;;11.80;99.90;;;10.88;100.00;98146.41;5029899;28;20765;-74
2022/10/27 02:11:44;;;;;;;19.20;8.60;;;11.80;99.90;;;10.87;100.00;98137.66;5030187;28;20762;-73
2022/10/27 02:14:11;;;;;;;17.58;8.32;;;11.80;99.90;;;10.86;100.00;98147.44;5033314;28;20423;-74
2022/10/27 02:16:42;;;;;;;21.03;8.60;;;11.80;99.90;;;10.86;100.00;98142.16;5033614;28;20489;-75
2022/10/27 02:19:17;;;;;;;24.97;9.30;;;11.90;99.90;;;10.85;100.00;98152.97;5033799;28;20488;-74
2022/10/27 02:21:45;;;;;;;18.10;8.07;;;11.80;99.90;;;10.82;100.00;98148.97;5033362;28;20411;-74
2022/10/27 02:24:11;;;;;;;21.42;7.97;;;11.80;99.90;;;10.79;100.00;98160.00;5033012;28;20510;-74
2022/10/27 02:26:44;;;;;;;17.27;7.95;;;11.80;99.90;;;10.79;100.00;98156.56;5033460;28;20495;-75
2022/10/27 02:29:15;;;;;;;23.75;9.30;;;11.70;99.90;;;10.78;100.00;98149.63;5033449;28;20816;-75
2022/10/27 02:31:46;;;;;;;25.38;8.95;;;11.70;99.90;;;10.76;100.00;98154.34;5033398;28;21055;-75
2022/10/27 02:34:15;;;;;;;22.27;9.07;;;11.70;99.90;;;10.76;100.00;98152.50;5032961;28;20458;-75
2022/10/27 02:36:41;;;;;;;21.85;9.48;;;11.70;99.90;;;10.77;100.00;98151.47;5033145;28;20395;-75
2022/10/27 02:39:07;;;;;;;28.13;9.85;;;11.70;99.90;;;10.79;100.00;98145.97;5033178;28;20406;-75
2022/10/27 02:41:33;;;;;;;23.47;9.80;;;11.70;99.90;;;10.77;100.00;98148.03;5033074;28;20450;-75
2022/10/27 02:43:59;;;;;;;27.63;10.30;;;11.70;99.90;;;10.76;100.00;98138.47;5032698;28;20407;-76
2022/10/27 02:46:25;;;;;;;23.40;9.55;;;11.70;99.90;;;10.74;100.00;98141.38;5032992;28;20444;-75
2022/10/27 02:48:50;;;;;;;24.17;9.10;;;11.70;99.90;;;10.73;100.00;98144.25;5033005;28;20409;-75
2022/10/27 02:51:18;;;;;;;22.10;9.73;;;11.70;99.90;;;10.73;100.00;98147.69;5032906;28;20501;-75
2022/10/27 02:53:43;;;;;;;25.63;9.85;;;11.70;99.90;;;10.73;100.00;98153.00;5032452;28;20407;-75
2022/10/27 02:56:09;;;;;;;16.60;8.82;;;11.70;99.90;;;10.70;100.00;98150.81;5032928;28;20738;-75
2022/10/27 02:58:35;;;;;;;20.33;9.18;;;11.60;99.90;;;10.68;100.00;98152.88;5032867;28;20430;-75
2022/10/27 03:01:02;;;;;;;19.95;9.48;;;11.70;99.90;;;10.66;100.00;98152.31;5032769;28;20497;-75
2022/10/27 03:03:27;;;;;;;28.27;10.40;;;11.60;99.90;;;10.67;100.00;98150.47;5049381;28;20452;-75
2022/10/27 03:05:53;;;;;;;28.13;10.13;;;11.60;99.90;;;10.65;100.00;98142.75;5052520;28;20438;-75
2022/10/27 03:08:21;;;;;;;24.50;9.67;;;11.60;99.90;;;10.64;100.00;98146.44;5052669;28;20960;-74
2022/10/27 03:10:46;;;;;;;21.65;8.98;;;11.60;99.90;;;10.65;100.00;98145.41;5052558;28;20410;-75
2022/10/27 03:13:12;;;;;;;25.88;9.00;;;11.60;99.90;;;10.66;100.00;98141.72;5052153;28;20405;-76
2022/10/27 03:15:38;;;;;;;17.23;8.77;;;11.60;99.90;;;10.64;100.00;98149.09;5052385;28;20488;-74
2022/10/27 03:18:04;;;;;;;19.43;9.07;;;11.60;99.90;;;10.62;100.00;98142.41;5052395;28;20401;-75
2022/10/27 03:20:30;;;;;;;17.52;8.85;;;11.60;99.90;;;10.60;100.00;98147.94;5052113;28;20432;-74
2022/10/27 03:22:56;;;;;;;29.75;10.52;;;11.60;99.90;;;10.61;100.00;98143.44;5051727;28;20417;-75
2022/10/27 03:25:24;;;;;;;29.27;9.80;;;11.50;99.90;;;10.56;100.00;98144.16;5051722;28;20907;-74
2022/10/27 03:27:49;;;;;;;21.98;9.52;;;11.50;99.90;;;10.53;100.00;98141.97;5051081;28;20409;-75
2022/10/27 03:30:16;;;;;;;22.13;9.07;;;11.50;99.90;;;10.51;100.00;98137.94;5052198;28;20929;-76
2022/10/27 03:32:46;;;;;;;27.15;10.18;;;11.50;99.90;;;10.48;100.00;98139.22;5051992;28;20480;-76
2022/10/27 03:35:12;;;;;;;24.63;9.88;;;11.50;99.90;;;10.46;100.00;98143.91;5052035;28;20404;-75
2022/10/27 03:37:38;;;;;;;29.85;10.40;;;11.40;99.90;;;10.44;100.00;98141.53;5052067;28;20401;-76
2022/10/27 03:40:06;;;;;;;25.15;9.68;;;11.40;99.90;;;10.42;100.00;98142.78;5052174;28;20915;-76
2022/10/27 03:42:33;;;;;;;29.40;10.55;;;11.40;99.90;;;10.41;100.00;98143.81;5051812;28;20424;-76
2022/10/27 03:44:59;;;;;;;27.88;10.18;;;11.40;99.90;;;10.40;100.00;98145.66;5051529;28;20897;-76
2022/10/27 03:47:25;;;;;;;23.47;10.00;;;11.30;99.90;;;10.39;100.00;98148.53;5051944;28;20429;-76
2022/10/27 03:49:51;;;;;;;21.23;9.93;;;11.40;99.90;;;10.39;100.00;98146.69;5038245;28;20403;-75
2022/10/27 03:52:17;;;;;;;23.65;10.10;;;11.30;99.90;;;10.40;100.00;98143.00;5029772;28;20411;-75
2022/10/27 03:54:43;;;;;;;20.35;9.77;;;11.40;99.90;;;10.39;100.00;98144.03;5031405;28;20406;-76
2022/10/27 03:57:11;;;;;;;27.92;10.80;;;11.40;99.90;;;10.41;100.00;98136.69;5031782;28;20454;-76
2022/10/27 03:59:39;;;;;;;22.00;10.43;;;11.40;99.90;;;10.37;100.00;98138.19;5021089;28;20408;-75
2022/10/27 04:02:05;;;;;;;26.00;10.88;;;11.30;99.90;;;10.35;100.00;98139.44;5021555;28;20790;-76
2022/10/27 04:04:31;;;;;;;22.38;9.75;;;11.40;99.90;;;10.33;100.00;98137.03;5018946;28;20415;-76
2022/10/27 04:06:57;;;;;;;18.23;9.30;;;11.30;99.90;;;10.34;100.00;98141.28;5022243;28;20900;-76
2022/10/27 04:09:23;;;;;;;26.27;9.52;;;11.30;99.90;;;10.35;100.00;98150.84;5020752;28;20409;-75
2022/10/27 04:11:48;;;;;;;23.42;9.77;;;11.30;99.90;;;10.32;100.00;98147.84;5021001;28;20447;-76
2022/10/27 04:14:14;;;;;;;23.33;11.20;;;11.30;99.90;;;10.31;100.00;98143.59;5021771;28;20415;-76
2022/10/27 04:16:42;;;;;;;19.20;9.40;;;11.30;99.90;;;10.28;100.00;98141.41;5020328;28;20409;-75
2022/10/27 04:19:09;;;;;;;23.17;10.02;;;11.30;99.90;;;10.28;100.00;98141.41;5021081;28;20403;-76
2022/10/27 04:21:34;;;;;;;18.50;9.35;;;11.30;99.90;;;10.28;100.00;98141.41;5022839;28;20797;-77
2022/10/27 04:24:00;;;;;;;29.47;11.30;;;11.20;99.90;;;10.28;100.00;98144.88;5026187;28;20411;-77
2022/10/27 04:26:26;;;;;;;17.50;10.05;;;11.30;99.90;;;10.26;100.00;98141.63;5020906;28;20806;-75
2022/10/27 04:28:52;;;;;;;16.70;9.98;;;11.20;99.90;;;10.26;100.00;98152.22;5019670;28;20407;-76
2022/10/27 04:31:18;;;;;;;25.35;10.20;;;11.20;99.90;;;10.26;100.00;98148.75;5017885;28;20442;-79
2022/10/27 04:33:46;;;;;;;22.20;10.70;;;11.30;99.90;;;10.26;100.00;98146.94;5021402;28;20411;-78
2022/10/27 04:36:11;;;;;;;22.80;10.38;;;11.30;99.90;;;10.26;100.00;98143.47;5016008;28;20412;-76
2022/10/27 04:38:37;;;;;;;31.30;11.88;;;11.20;99.90;;;10.27;100.00;98155.69;5011347;28;20401;-75
2022/10/27 04:41:04;;;;;;;17.37;9.97;;;11.20;99.90;;;10.24;100.00;98156.13;5011455;28;20436;-76
2022/10/27 04:43:29;;;;;;;21.10;10.15;;;11.20;99.90;;;10.24;100.00;98156.94;5010793;28;20425;-76
2022/10/27 04:45:55;;;;;;;26.43;11.83;;;11.20;99.90;;;10.24;100.00;98156.94;5011327;28;20506;-76
2022/10/27 04:48:21;;;;;;;22.57;11.43;;;11.20;99.90;;;10.24;100.00;98151.63;5011248;28;20405;-76
2022/10/27 04:50:48;;;;;;;26.30;11.27;;;11.20;99.90;;;10.24;100.00;98154.28;5011036;28;20450;-76
2022/10/27 04:53:14;;;;;;;24.20;11.07;;;11.20;99.90;;;10.25;100.00;98150.59;5013159;28;20756;-76
2022/10/27 04:55:40;;;;;;;17.58;10.15;;;11.20;99.90;;;10.26;100.00;98152.22;5018576;28;20406;-76
2022/10/27 04:58:06;;;;;;;21.03;10.60;;;11.20;99.90;;;10.26;100.00;98160.16;5030178;28;20409;-75
2022/10/27 05:00:32;;;;;;;21.02;10.98;;;11.30;99.90;;;10.25;100.00;98158.53;5030501;28;20773;-76
2022/10/27 05:02:58;;;;;;;21.20;10.20;;;11.20;99.90;;;10.24;100.00;98164.06;5030316;28;20422;-76
2022/10/27 05:05:28;;;;;;;20.73;11.05;;;11.20;99.90;;;10.23;100.00;98152.66;5029258;28;20406;-76
2022/10/27 05:07:59;;;;;;;22.37;10.87;;;11.20;99.90;;;10.20;100.00;98150.50;5029639;28;20411;-76
2022/10/27 05:10:26;;;;;;;25.90;11.68;;;11.20;99.90;;;10.18;100.00;98149.91;5029780;28;20410;-76
2022/10/27 05:12:51;;;;;;;28.25;12.52;;;11.20;99.90;;;10.16;100.00;98154.59;5029193;28;21112;-76
2022/10/27 05:15:18;;;;;;;18.10;10.88;;;11.10;99.90;;;10.17;100.00;98150.09;5029633;28;20497;-76
2022/10/27 05:17:44;;;;;;;27.15;11.52;;;11.10;99.90;;;10.17;100.00;98153.59;5029572;28;20425;-76
2022/10/27 05:20:11;;;;;;;24.38;11.48;;;11.10;99.90;;;10.16;100.00;98148.50;5030286;28;20768;-76
2022/10/27 05:22:38;;;;;;;25.48;10.55;;;11.10;99.90;;;10.15;100.00;98152.19;5030307;28;20421;-77
2022/10/27 05:25:07;;;;;;;26.23;11.88;;;11.10;99.90;;;10.13;100.00;98147.13;5030381;28;20437;-77
2022/10/27 05:27:34;;;;;;;22.75;10.80;;;11.10;99.90;;;10.13;100.00;98151.63;5030684;28;20414;-77
2022/10/27 05:30:00;;;;;;;27.60;11.43;;;11.10;99.90;;;10.14;100.00;98153.22;5030656;28;20938;-76
2022/10/27 05:32:26;;;;;;;20.60;10.65;;;11.10;99.90;;;10.12;100.00;98155.28;5030345;28;20403;-76
2022/10/27 05:34:52;;;;;;;16.63;9.63;;;11.10;99.90;;;10.13;100.00;98146.31;5030054;28;20422;-76
2022/10/27 05:37:17;;;;;;;23.77;11.30;;;11.10;99.90;;;10.15;100.00;98145.03;5030441;28;20431;-77
2022/10/27 05:39:43;;;;;;;31.03;11.67;;;11.10;99.90;;;10.14;100.00;98140.81;5030311;28;20490;-76
2022/10/27 05:42:10;;;;;;;21.83;10.40;;;11.10;99.90;;;10.14;100.00;98140.00;5028761;28;20486;-74
2022/10/27 05:44:36;;;;;;;26.58;11.52;;;11.10;99.90;;;10.13;100.00;98135.75;5029725;28;20760;-75
2022/10/27 05:47:02;;;;;;;26.60;11.27;;;11.10;99.90;;;10.10;100.00;98132.50;5029832;28;20454;-77
2022/10/27 05:49:28;;;;;;;19.40;10.32;;;11.10;99.90;;;10.09;100.00;98130.91;5032214;28;20472;-76
2022/10/27 05:51:54;;;;;;;18.25;10.25;;;11.10;99.90;;;10.08;100.00;98126.63;5033712;28;20555;-76
2022/10/27 05:54:20;;;;;;;22.50;10.82;;;11.00;99.90;;;10.06;100.00;98126.09;5033583;28;20489;-76
2022/10/27 05:56:48;;;;;;;17.55;9.50;;;11.00;99.90;;;10.07;100.00;98132.97;5033920;28;20406;-76
2022/10/27 05:59:15;;;;;;;18.80;9.98;;;11.00;99.90;;;10.07;100.00;98132.97;5033930;28;20460;-77
2022/10/27 06:01:41;;;;;;;21.33;10.52;;;11.00;99.90;;;10.06;100.00;98123.44;5032536;28;20781;-77
2022/10/27 06:04:07;;;;;;;21.95;10.73;;;11.10;99.90;;;10.09;100.00;98122.16;5033401;28;20450;-77
2022/10/27 06:06:34;;;;;;;32.95;13.20;;;11.10;99.90;;;10.12;100.00;98124.34;5033746;28;20757;-77
2022/10/27 06:09:00;;;;;;;28.60;12.90;;;11.10;99.90;;;10.17;100.00;98123.66;5033737;28;20419;-77
2022/10/27 06:11:26;;;;;;;33.58;14.10;;;11.10;99.90;;;10.23;100.00;98128.84;5033715;28;20501;-77
2022/10/27 06:13:52;;;;;;;42.00;15.50;;;11.20;99.90;;;10.37;100.00;98122.31;5033322;28;20403;-76
2022/10/27 06:16:20;;;;;;;39.50;15.82;;;11.30;99.90;;;10.43;100.00;98126.69;5033455;28;20407;-76
2022/10/27 06:18:46;;;;;;;41.17;15.82;;;11.40;99.90;;;10.50;100.00;98136.34;5033378;28;20471;-77
2022/10/27 06:21:12;;;;;;;33.00;14.95;;;11.40;99.90;;;10.55;100.00;98141.72;5033344;28;20434;-76
2022/10/27 06:23:40;;;;;;;34.47;15.13;;;11.50;99.90;;;10.59;100.00;98145.53;5032922;28;20897;-76
2022/10/27 06:26:06;;;;;;;25.20;12.75;;;11.50;99.90;;;10.62;100.00;98145.88;5033371;28;20800;-76
2022/10/27 06:28:32;;;;;;;28.35;13.23;;;11.50;99.90;;;10.65;100.00;98150.72;5033385;28;20892;-76
2022/10/27 06:30:59;;;;;;;31.10;12.60;;;11.60;99.90;;;10.74;100.00;98156.47;5033242;28;20437;-76
2022/10/27 06:33:26;;;;;;;32.20;12.80;;;11.60;99.90;;;10.69;100.00;98153.69;5032884;28;20399;-76
2022/10/27 06:35:52;;;;;;;35.97;13.47;;;11.60;99.90;;;10.67;100.00;98158.44;5033334;28;20494;-76
2022/10/27 06:38:18;;;;;;;27.58;11.85;;;11.60;99.90;;;10.67;100.00;98159.22;5033264;28;20406;-76
2022/10/27 06:40:44;;;;;;;30.60;12.73;;;11.60;99.90;;;10.66;100.00;98164.75;5031934;28;20415;-77
2022/10/27 06:43:11;;;;;;;41.05;13.57;;;11.60;99.90;;;10.65;100.00;98160.50;5032796;28;20423;-75
2022/10/27 06:45:38;;;;;;;33.75;14.70;;;11.60;99.90;;;10.64;100.00;98169.47;5028076;28;20419;-76
2022/10/27 06:48:08;;;;;;;38.22;14.60;;;11.60;99.90;;;10.67;100.00;98171.66;5019395;28;20411;-78
2022/10/27 06:53:14;;;;;;;31.20;11.98;;;11.60;99.90;;;10.73;100.00;98176.03;5005179;28;21004;-76
2022/10/27 06:55:40;;;;;;;25.90;12.13;;;11.60;99.90;;;10.74;100.00;98175.00;5012590;28;20436;-75
2022/10/27 06:58:06;;;;;;;27.02;12.25;;;11.70;99.90;;;10.74;100.00;98173.16;5011783;28;20405;-76
2022/10/27 07:00:32;;;;;;;30.65;12.65;;;11.70;99.90;;;10.76;100.00;98170.25;5011424;28;20436;-77
2022/10/27 07:02:58;;;;;;;20.40;10.82;;;11.70;99.90;;;10.78;100.00;98176.13;5012387;28;20496;-78
2022/10/27 07:05:24;;;;;;;27.48;11.73;;;11.70;99.90;;;10.79;100.00;98175.09;5012895;28;20419;-76
2022/10/27 07:07:52;;;;;;;25.95;12.40;;;11.70;99.90;;;10.79;100.00;98173.25;5012898;28;20939;-75
2022/10/27 07:10:20;;;;;;;23.90;11.32;;;11.70;99.90;;;10.80;100.00;98168.75;4993089;28;20406;-76
2022/10/27 07:12:54;;;;;;;20.58;11.77;;;11.70;99.90;;;10.81;100.00;98173.81;4992730;28;20861;-76
2022/10/27 07:15:21;;;;;;;25.23;11.13;;;11.70;99.90;;;10.84;100.00;98168.03;4992969;28;20399;-76
2022/10/27 07:17:46;;;;;;;18.52;10.40;;;11.80;99.90;;;10.89;100.00;98174.50;4991926;28;20494;-81
2022/10/27 07:20:12;;;;;;;32.33;12.73;;;11.80;99.90;;;10.89;100.00;98167.38;4992762;28;20402;-82
2022/10/27 07:22:40;;;;;;;31.88;12.32;;;11.80;99.90;;;10.92;100.00;98179.31;4978098;28;20918;-76
2022/10/27 07:25:07;;;;;;;20.40;10.98;;;11.80;99.90;;;10.97;100.00;98177.59;4991129;28;20441;-77
2022/10/27 07:27:34;;;;;;;23.98;10.23;;;11.80;99.90;;;11.02;100.00;98175.03;4992842;28;20403;-78
2022/10/27 07:30:00;;;;;;;24.25;9.25;;;11.90;99.90;;;11.08;100.00;98176.75;4992459;28;20497;-80
2022/10/27 07:32:26;;;;;;;21.30;9.00;;;12.00;99.90;;;11.14;100.00;98175.00;4992831;28;20410;-76
2022/10/27 07:34:52;;;;;;;20.73;8.77;;;12.00;99.90;;;11.27;100.00;98182.69;4992450;28;20445;-75
2022/10/27 07:37:18;;;;;;;20.70;7.97;;;12.10;99.90;;;11.44;100.00;98180.09;4992705;28;20422;-77
2022/10/27 07:39:44;;;;;;;15.52;7.85;;;12.30;99.90;;;11.51;100.00;98183.41;4991564;28;20412;-76
2022/10/27 07:42:10;;;;;;;20.83;8.23;;;12.30;99.90;;;11.63;100.00;98184.16;4990286;28;20461;-76
2022/10/27 07:44:37;;;;;;;17.48;7.32;;;12.50;99.90;;;11.76;100.00;98180.44;4980110;28;20404;-77
2022/10/27 07:47:03;;;;;;;22.17;7.32;;;12.60;99.90;;;11.76;100.00;98181.25;4992658;28;20406;-76
2022/10/27 07:49:28;;;;;;;14.77;6.25;;;12.60;99.90;;;12.02;100.00;98183.28;4992554;28;20888;-77
2022/10/27 07:51:54;;;;;;;14.70;6.35;;;12.80;99.90;;;12.21;100.00;98185.69;4992282;28;20418;-80
2022/10/27 07:54:20;;;;;;;14.63;6.57;;;13.00;99.90;;;12.27;100.00;98187.38;4992210;28;20994;-78
2022/10/27 07:56:47;;;;;;;22.80;6.35;;;13.10;99.90;;;12.43;100.00;98189.22;4991582;28;20430;-77
2022/10/27 07:59:13;;;;;;;33.95;9.80;;;13.20;99.90;;;12.52;100.00;98190.44;4992157;28;20407;-78
2022/10/27 08:01:40;;;;;;;34.15;10.18;;;13.30;99.90;;;12.58;100.00;98191.28;4991546;28;20499;-74
2022/10/27 08:04:06;;;;;;;26.20;8.70;;;13.40;99.90;;;12.70;100.00;98198.13;4991160;28;20476;-79
2022/10/27 08:06:32;;;;;;;22.00;6.70;;;13.50;99.90;;;12.73;100.00;98197.63;4992121;28;20398;-79
2022/10/27 08:08:58;;;;;;;13.85;5.35;;;13.50;99.90;;;12.78;100.00;98204.84;4991288;28;20516;-78
2022/10/27 08:11:24;;;;;;;7.88;4.85;;;13.60;99.90;;;12.91;100.00;98207.19;4980288;28;20418;-79
2022/10/27 08:13:51;;;;;;;9.77;4.53;;;13.70;99.90;;;12.98;100.00;98207.81;4981746;28;20403;-80
2022/10/27 08:16:17;;;;;;;9.60;4.80;;;13.70;99.90;;;13.03;100.00;98202.53;4990957;28;20403;-76
2022/10/27 08:18:44;;;;;;;9.55;4.45;;;13.80;99.90;;;13.10;100.00;98213.00;4992243;28;20409;-75
2022/10/27 08:21:10;;;;;;;9.13;4.57;;;13.90;99.90;;;13.15;100.00;98215.78;4991946;28;20410;-77
2022/10/27 08:23:37;;;;;;;11.88;5.38;;;13.90;99.90;;;13.19;100.00;98216.88;4991576;28;20929;-78
2022/10/27 08:26:03;;;;;;;12.03;4.67;;;13.90;99.90;;;13.25;100.00;98209.75;4991840;28;20422;-75
2022/10/27 08:28:29;;;;;;;7.97;4.90;;;14.00;99.90;;;13.31;100.00;98214.06;4990797;28;20411;-77
2022/10/27 08:30:54;;;;;;;10.60;4.40;;;14.00;99.90;;;13.36;100.00;98222.13;4990386;28;20765;-81
2022/10/27 08:33:21;;;;;;;13.18;5.43;;;14.10;99.90;;;13.40;100.00;98209.94;4991535;28;20402;-80
2022/10/27 08:35:49;;;;;;;9.85;5.70;;;14.20;99.90;;;13.44;100.00;98214.53;4992089;28;20417;-79
2022/10/27 08:38:16;;;;;;;13.80;6.75;;;14.20;99.90;;;13.51;100.00;98214.31;4992099;28;20464;-79
2022/10/27 08:40:56;;;;;;;10.38;5.88;;;14.20;99.90;;;13.54;100.00;98211.97;4991984;28;20938;-77
2022/10/27 08:43:47;;;;;;;13.43;5.80;;;14.30;99.90;;;13.63;100.00;98214.97;5006726;28;20892;-78
2022/10/27 08:46:22;;;;;;;16.50;6.38;;;14.40;99.90;;;13.69;100.00;98208.66;4991929;28;20880;-78
2022/10/27 08:48:52;;;;;;;14.60;6.60;;;14.40;99.90;;;13.76;100.00;98206.59;4991655;28;20420;-78
2022/10/27 08:51:23;;;;;;;13.32;6.40;;;14.50;99.90;;;13.90;100.00;98210.47;4991893;28;20942;-79
2022/10/27 08:53:52;;;;;;;9.63;5.80;;;14.60;99.90;;;14.03;100.00;98206.59;4991240;28;20431;-76
2022/10/27 08:56:21;;;;;;;12.65;6.03;;;14.70;99.90;;;14.09;100.00;98210.91;4991297;28;20415;-79
2022/10/27 08:58:48;;;;;;;15.68;6.80;;;14.80;99.90;;;14.13;100.00;98213.88;4984837;28;20407;-79
2022/10/27 09:01:26;;;;;;;13.75;5.95;;;14.90;99.90;;;14.26;100.00;98202.78;4978604;28;20902;-83
2022/10/27 09:04:13;;;;;;;15.93;5.88;;;15.00;99.90;;;14.29;100.00;98211.06;4971690;28;20430;-79
2022/10/27 09:06:56;;;;;;;15.55;5.00;;;15.00;99.90;;;14.40;100.00;98205.84;4972135;28;20477;-79
2022/10/27 09:09:29;;;;;;;14.23;4.65;;;15.10;99.90;;;14.38;100.00;98214.09;4970691;28;20418;-77
2022/10/27 09:12:09;;;;;;;17.30;5.43;;;15.10;99.90;;;14.55;100.00;98213.97;4971987;28;20412;-79
2022/10/27 09:15:18;;;;;;;11.00;4.25;;;15.30;99.90;;;14.73;100.00;98211.66;4971289;28;20410;-80
2022/10/27 09:17:48;;;;;;;11.35;4.20;;;15.40;99.90;;;14.81;100.00;98210.38;4970779;28;20503;-79
2022/10/27 09:20:25;;;;;;;13.18;3.60;;;15.50;99.90;;;14.93;100.00;98205.66;4972256;28;20408;-79
2022/10/27 09:22:55;;;;;;;18.10;4.22;;;15.60;99.90;;;14.76;100.00;98196.22;4971068;28;20416;-77
2022/10/27 09:25:22;;;;;;;11.63;3.60;;;15.60;99.90;;;14.79;100.00;98198.41;4971948;28;20497;-78
2022/10/27 09:27:54;;;;;;;11.73;3.15;;;15.50;99.90;;;15.12;100.00;98198.00;4972373;28;20404;-77
2022/10/27 09:30:20;;;;;;;9.43;3.70;;;15.70;99.90;;;15.22;100.00;98202.59;4972023;28;20507;-76
2022/10/27 09:32:52;;;;;;;15.97;3.93;;;15.90;99.90;;;15.10;100.00;98203.63;4971750;28;20878;-82
2022/10/27 09:35:22;;;;;;;12.77;4.10;;;15.90;99.90;;;15.15;100.00;98207.38;4974789;28;20416;-84
2022/10/27 09:37:49;;;;;;;16.20;3.80;;;16.00;99.90;;;15.29;100.00;98203.97;4972867;28;20435;-80
2022/10/27 09:40:20;;;;;;;17.80;4.40;;;16.00;99.90;;;15.55;100.00;98207.56;4972386;28;20428;-80
2022/10/27 09:42:49;;;;;;;13.43;3.60;;;16.20;99.90;;;15.65;100.00;98201.44;4973055;28;20780;-78
2022/10/27 09:45:18;;;;;;;7.80;3.45;;;16.30;99.90;;;15.72;100.00;98201.97;4971320;28;20933;-78
2022/10/27 09:47:49;;;;;;;13.73;3.60;;;16.30;99.90;;;15.88;100.00;98199.06;4971549;28;20459;-76
2022/10/27 09:50:21;;;;;;;12.02;3.45;;;16.50;99.90;;;15.75;100.00;98198.78;4971617;28;20428;-79
2022/10/27 09:52:47;;;;;;;11.15;3.53;;;16.50;99.90;;;15.96;100.00;98199.63;4971000;28;20898;-78
2022/10/27 09:55:16;;;;;;;11.38;3.70;;;16.60;99.90;;;16.11;100.00;98191.63;4972406;28;20404;-79
2022/10/27 09:57:45;;;;;;;13.65;3.88;;;16.70;99.90;;;16.05;100.00;98200.69;4990748;28;20432;-78
2022/10/27 10:00:25;;;;;;;9.82;3.42;;;16.70;99.90;;;16.13;100.00;98202.84;4989387;28;20869;-80
2022/10/27 10:03:01;;;;;;;13.63;3.60;;;16.80;99.90;;;16.06;100.00;98199.63;4987948;28;20422;-78
2022/10/27 10:05:31;;;;;;;10.73;3.35;;;16.70;99.90;;;16.21;100.00;98195.09;4990381;28;20414;-75
2022/10/27 10:08:13;;;;;;;9.37;3.30;;;16.80;99.90;;;16.34;100.00;98198.28;4990857;28;20490;-86
2022/10/27 10:10:54;;;;;;;10.32;3.55;;;17.00;99.90;;;16.49;100.00;98199.09;4990832;28;20417;-84
2022/10/27 10:13:22;;;;;;;9.65;3.42;;;17.00;99.90;;;16.46;100.00;98199.66;4990346;28;20403;-75
2022/10/27 10:16:02;;;;;;;10.82;3.78;;;17.10;99.90;;;16.41;100.00;98199.63;4990788;28;20417;-79